Time;durP1;ratioP1;P1;durP2;ratioP2;P2;SDS_P1;SDS_P2;PMS_P1;PMS_P2;Temp;Humidity;BMP_temperature;BMP_pressure;BME280_temperature;BME280_humidity;BME280_pressure;Samples;Min_cycle;Max_cycle;Signal;HPM_P1;HPM_P2
2023/04/30 05:50:18;;;;;;;;;;;;;;;13.08;66.82;98522.34;4949055;23;19963;-63
2023/04/30 05:52:43;;;;;;;;;;;;;;;13.10;66.17;98519.59;4859938;29;19955;-63
2023/04/30 05:55:09;;;;;;;;;;;;;;;14.17;66.00;98516.72;4856328;29;19987;-61
2023/04/30 05:57:35;;;;;;;;;;;;;;;14.10;63.44;98520.78;4854176;29;19991;-62
2023/04/30 06:00:00;;;;;;;;;;;;;;;13.86;63.24;98518.25;4843182;29;19923;-62
2023/04/30 06:02:25;;;;;;;;;;;;;;;13.91;65.39;98519.59;4857892;29;19992;-62
2023/04/30 06:04:50;;;;;;;;;;;;;;;13.92;65.30;98521.25;4848935;29;19920;-61
2023/04/30 06:07:15;;;;;;;;;;;;;;;13.96;64.16;98520.06;4827454;29;19927;-62
2023/04/30 06:09:41;;;;;;;;;;;;;;;14.06;63.68;98522.00;4844905;29;19916;-62
2023/04/30 06:12:06;;;;;;;;;;;;;;;13.98;62.64;98527.88;4839193;29;19920;-62
2023/04/30 06:14:31;;;;;;;;;;;;;;;13.78;62.44;98518.84;4834657;29;19920;-63
2023/04/30 06:16:56;;;;;;;;;;;;;;;13.82;62.50;98517.66;4838868;29;19924;-62
2023/04/30 06:19:22;;;;;;;;;;;;;;;13.88;62.19;98517.19;4837088;29;19920;-63
2023/04/30 06:21:47;;;;;;;;;;;;;;;13.79;62.17;98515.25;4843068;29;19941;-63
2023/04/30 06:24:12;;;;;;;;;;;;;;;13.82;62.62;98511.53;4839888;29;19917;-62
2023/04/30 06:26:37;;;;;;;;;;;;;;;13.77;62.37;98518.00;4831804;29;20378;-64
2023/04/30 06:29:03;;;;;;;;;;;;;;;13.72;62.43;98512.25;4822062;29;20280;-63
2023/04/30 06:31:29;;;;;;;;;;;;;;;13.71;62.44;98515.84;4833099;29;20653;-63
2023/04/30 06:33:54;;;;;;;;;;;;;;;13.73;62.41;98515.75;4847486;29;19976;-62
2023/04/30 06:36:19;;;;;;;;;;;;;;;13.58;62.02;98514.25;4841446;29;20016;-63
2023/04/30 06:38:45;;;;;;;;;;;;;;;13.58;62.54;98509.00;4834522;29;19976;-62
2023/04/30 06:41:10;;;;;;;;;;;;;;;13.51;62.87;98509.44;4830551;29;19986;-62
2023/04/30 06:43:36;;;;;;;;;;;;;;;13.51;62.87;98514.72;4839340;29;19921;-63
2023/04/30 06:46:01;;;;;;;;;;;;;;;13.46;62.35;98513.41;4840730;29;19977;-62
2023/04/30 06:48:26;;;;;;;;;;;;;;;13.52;62.30;98516.41;4844421;29;19916;-62
2023/04/30 06:50:51;;;;;;;;;;;;;;;13.57;62.58;98510.78;4843383;29;19967;-61
2023/04/30 06:53:17;;;;;;;;;;;;;;;13.49;61.09;98510.53;4835555;29;19960;-61
2023/04/30 06:55:43;;;;;;;;;;;;;;;13.45;60.71;98515.16;4844286;29;19956;-61
2023/04/30 06:58:08;;;;;;;;;;;;;;;14.02;66.91;98519.59;4824357;29;20409;-61
2023/04/30 07:00:33;;;;;;;;;;;;;;;14.27;61.04;98516.84;4841300;29;19920;-62
2023/04/30 07:03:01;;;;;;;;;;;;;;;13.93;59.76;98515.03;4838800;29;19927;-62
2023/04/30 07:05:26;;;;;;;;;;;;;;;13.81;59.64;98515.16;4843888;29;19920;-62
2023/04/30 07:07:51;;;;;;;;;;;;;;;13.78;59.95;98517.06;4842465;29;19925;-62
2023/04/30 07:10:17;;;;;;;;;;;;;;;13.78;60.14;98516.22;4826455;29;20037;-62
2023/04/30 07:12:42;;;;;;;;;;;;;;;13.72;59.76;98511.41;4826948;29;19939;-62
2023/04/30 07:15:08;;;;;;;;;;;;;;;13.70;59.92;98511.53;4842446;29;19921;-62
2023/04/30 07:17:34;;;;;;;;;;;;;;;13.76;60.19;98518.13;4843850;29;19916;-62
2023/04/30 07:19:59;;;;;;;;;;;;;;;13.85;60.34;98516.59;4826028;29;20007;-63
2023/04/30 07:22:24;;;;;;;;;;;;;;;13.90;59.61;98520.56;4843785;29;19923;-63
2023/04/30 07:24:49;;;;;;;;;;;;;;;13.91;58.89;98522.22;4843789;29;20290;-63
2023/04/30 07:27:14;;;;;;;;;;;;;;;13.92;58.87;98523.06;4843569;29;20314;-62
2023/04/30 07:29:40;;;;;;;;;;;;;;;14.01;59.66;98519.72;4841831;29;20302;-62
2023/04/30 07:32:05;;;;;;;;;;;;;;;14.07;59.25;98521.03;4837612;29;19921;-62
2023/04/30 07:34:30;;;;;;;;;;;;;;;14.16;59.15;98515.03;4843566;29;19939;-61
2023/04/30 07:36:55;;;;;;;;;;;;;;;14.28;60.10;98508.81;4843388;29;19921;-64
2023/04/30 07:39:21;;;;;;;;;;;;;;;14.37;58.74;98509.88;4841358;29;19999;-64
2023/04/30 07:41:46;;;;;;;;;;;;;;;14.44;57.67;98518.97;4842328;29;20057;-64
2023/04/30 07:44:11;;;;;;;;;;;;;;;14.58;57.55;98517.91;4843196;29;19995;-63
2023/04/30 07:46:36;;;;;;;;;;;;;;;14.54;56.13;98513.84;4841005;29;20003;-63
2023/04/30 07:49:02;;;;;;;;;;;;;;;14.59;56.18;98514.31;4841896;29;19920;-63
2023/04/30 07:51:28;;;;;;;;;;;;;;;14.64;55.12;98512.16;4836182;29;19979;-63
2023/04/30 07:53:53;;;;;;;;;;;;;;;14.73;55.13;98514.06;4843203;29;19916;-62
2023/04/30 07:56:19;;;;;;;;;;;;;;;14.86;55.23;98514.72;4826691;29;20386;-62
2023/04/30 07:58:44;;;;;;;;;;;;;;;14.93;54.68;98515.91;4843068;29;19928;-62
2023/04/30 08:01:09;;;;;;;;;;;;;;;15.02;55.31;98516.97;4842774;29;19935;-63
2023/04/30 08:03:35;;;;;;;;;;;;;;;15.04;53.51;98506.28;4837319;29;20442;-63
2023/04/30 08:06:01;;;;;;;;;;;;;;;14.99;53.24;98506.63;4839624;29;20403;-63
2023/04/30 08:08:26;;;;;;;;;;;;;;;14.92;53.72;98516.88;4839431;29;20019;-63
2023/04/30 08:10:51;;;;;;;;;;;;;;;14.94;52.35;98507.03;4841051;29;20279;-62
2023/04/30 08:13:16;;;;;;;;;;;;;;;15.00;54.14;98512.75;4840828;29;19993;-63
2023/04/30 08:15:42;;;;;;;;;;;;;;;15.01;53.85;98498.59;4842786;29;20019;-62
2023/04/30 08:18:07;;;;;;;;;;;;;;;15.48;53.42;98505.22;4842530;29;20379;-63
2023/04/30 08:20:33;;;;;;;;;;;;;;;15.90;54.60;98495.50;4824684;29;19921;-63
2023/04/30 08:22:58;;;;;;;;;;;;;;;16.27;54.01;98497.56;4841081;29;20030;-63
2023/04/30 08:25:23;;;;;;;;;;;;;;;16.61;53.35;98494.63;4839206;29;19953;-62
2023/04/30 08:27:48;;;;;;;;;;;;;;;16.59;50.00;98491.28;4825695;29;19916;-62
2023/04/30 08:30:14;;;;;;;;;;;;;;;16.63;49.85;98490.03;4841712;29;20019;-63
2023/04/30 08:32:40;;;;;;;;;;;;;;;17.12;51.73;98487.47;4842057;29;19972;-62
2023/04/30 08:35:05;;;;;;;;;;;;;;;17.22;49.31;98489.13;4825398;29;19963;-62
2023/04/30 08:37:31;;;;;;;;;;;;;;;17.48;44.45;98484.09;4837498;29;20410;-62
2023/04/30 08:39:56;;;;;;;;;;;;;;;17.87;48.61;98488.50;4837813;29;19920;-62
2023/04/30 08:42:23;;;;;;;;;;;;;;;18.12;43.61;98493.16;4822889;29;19921;-62
2023/04/30 08:44:49;;;;;;;;;;;;;;;18.53;47.38;98484.84;4828644;29;19917;-62
2023/04/30 08:47:14;;;;;;;;;;;;;;;18.98;47.57;98484.84;4840017;29;19928;-62
2023/04/30 08:49:39;;;;;;;;;;;;;;;19.24;43.82;98481.44;4839673;29;19924;-63
2023/04/30 08:52:05;;;;;;;;;;;;;;;19.55;44.11;98482.69;4830114;29;19920;-63
2023/04/30 08:54:31;;;;;;;;;;;;;;;19.78;43.58;98476.88;4825252;29;20452;-62
2023/04/30 08:56:56;;;;;;;;;;;;;;;19.91;40.37;98482.59;4835165;29;19935;-63
2023/04/30 08:59:21;;;;;;;;;;;;;;;20.32;40.87;98480.16;4841608;29;19916;-63
2023/04/30 09:01:47;;;;;;;;;;;;;;;20.58;43.67;98475.63;4842063;29;19939;-63
2023/04/30 09:04:12;;;;;;;;;;;;;;;20.81;40.19;98475.00;4841194;29;19920;-63
2023/04/30 09:06:37;;;;;;;;;;;;;;;21.13;41.28;98478.69;4838037;29;20414;-63
2023/04/30 09:09:10;;;;;;;;;;;;;;;21.40;39.81;98486.41;4841212;29;20446;-63
2023/04/30 09:11:35;;;;;;;;;;;;;;;21.49;37.76;98468.56;4839743;29;19916;-63
2023/04/30 09:14:00;;;;;;;;;;;;;;;21.67;35.76;98471.03;4840666;29;19927;-63
2023/04/30 09:16:26;;;;;;;;;;;;;;;22.08;39.98;98478.97;4840155;29;20092;-63
2023/04/30 09:18:52;;;;;;;;;;;;;;;22.43;39.27;98475.84;4823661;29;19932;-63
2023/04/30 09:21:29;;;;;;;;;;;;;;;22.69;35.78;98475.56;4838568;29;19924;-63
2023/04/30 09:23:55;;;;;;;;;;;;;;;22.59;34.64;98476.78;4837809;29;20082;-62
2023/04/30 09:26:21;;;;;;;;;;;;;;;22.90;33.84;98482.13;4840891;29;20404;-62
2023/04/30 09:28:53;;;;;;;;;;;;;;;23.01;34.28;98486.25;4823872;29;19925;-62
2023/04/30 09:31:19;;;;;;;;;;;;;;;22.16;40.68;98484.31;4837797;29;19928;-62
2023/04/30 09:33:44;;;;;;;;;;;;;;;21.83;35.61;98475.53;4824284;29;20343;-63
2023/04/30 09:36:10;;;;;;;;;;;;;;;22.42;34.66;98474.19;4839489;29;20454;-63
2023/04/30 09:38:35;;;;;;;;;;;;;;;22.73;32.50;98474.19;4829077;29;19920;-63
2023/04/30 09:41:00;;;;;;;;;;;;;;;23.09;32.93;98476.34;4837501;29;19921;-63
2023/04/30 09:43:26;;;;;;;;;;;;;;;23.39;35.40;98479.09;4841344;29;19928;-63
2023/04/30 09:45:51;;;;;;;;;;;;;;;23.55;32.92;98478.16;4829852;29;19928;-63
2023/04/30 09:48:20;;;;;;;;;;;;;;;23.86;32.70;98470.84;4837375;29;19976;-63
2023/04/30 09:50:46;;;;;;;;;;;;;;;23.68;34.37;98468.50;4816133;29;19920;-63
2023/04/30 09:53:13;;;;;;;;;;;;;;;23.90;32.96;98477.47;4837882;29;19929;-60
2023/04/30 09:55:38;;;;;;;;;;;;;;;24.14;31.02;98470.19;4823172;29;19960;-62
2023/04/30 09:58:04;;;;;;;;;;;;;;;24.36;31.34;98468.41;4822557;29;20377;-61
2023/04/30 10:00:29;;;;;;;;;;;;;;;24.66;31.67;98463.88;4835473;29;20198;-62
2023/04/30 10:02:54;;;;;;;;;;;;;;;24.64;29.65;98457.88;4814086;29;19924;-63
2023/04/30 10:05:20;;;;;;;;;;;;;;;24.77;27.63;98463.38;4821546;29;19935;-63
2023/04/30 10:07:45;;;;;;;;;;;;;;;25.03;31.26;98448.56;4839583;29;19920;-62
2023/04/30 10:10:10;;;;;;;;;;;;;;;25.07;27.49;98447.16;4829190;29;19945;-62
2023/04/30 10:12:43;;;;;;;;;;;;;;;25.18;27.64;98448.53;4818742;29;19925;-62
2023/04/30 10:15:08;;;;;;;;;;;;;;;25.32;27.54;98443.09;4816521;29;19928;-62
2023/04/30 10:17:35;;;;;;;;;;;;;;;25.51;27.11;98440.78;4834744;29;19950;-62
2023/04/30 10:20:02;;;;;;;;;;;;;;;25.97;27.63;98442.97;4839572;29;19952;-63
2023/04/30 10:22:28;;;;;;;;;;;;;;;26.38;28.94;98437.56;4832730;29;19977;-63
2023/04/30 10:24:53;;;;;;;;;;;;;;;26.71;27.53;98431.53;4835114;29;19920;-64
2023/04/30 10:27:18;;;;;;;;;;;;;;;27.18;29.36;98440.53;4834192;29;19921;-62
2023/04/30 10:29:44;;;;;;;;;;;;;;;27.10;25.99;98430.75;4840677;29;19916;-63
2023/04/30 10:32:10;;;;;;;;;;;;;;;27.81;26.92;98423.97;4819365;29;19932;-63
2023/04/30 10:34:39;;;;;;;;;;;;;;;27.82;25.04;98420.22;4817636;29;19929;-63
2023/04/30 10:37:17;;;;;;;;;;;;;;;27.91;25.86;98424.34;4832348;29;19963;-63
2023/04/30 10:39:42;;;;;;;;;;;;;;;28.39;26.44;98437.50;4823659;29;19928;-63
2023/04/30 10:42:08;;;;;;;;;;;;;;;28.34;25.12;98424.59;4818283;29;19933;-61
2023/04/30 10:44:37;;;;;;;;;;;;;;;28.67;26.10;98428.25;4829885;29;19920;-64
2023/04/30 10:47:02;;;;;;;;;;;;;;;29.03;23.26;98417.63;4837120;29;19921;-63
2023/04/30 10:49:28;;;;;;;;;;;;;;;28.47;21.98;98410.28;4826992;29;19960;-59
2023/04/30 10:51:55;;;;;;;;;;;;;;;28.21;22.57;98407.66;4836220;29;20024;-63
2023/04/30 10:54:22;;;;;;;;;;;;;;;28.97;23.11;98413.06;4840654;29;19920;-63
2023/04/30 10:56:47;;;;;;;;;;;;;;;29.69;24.94;98415.44;4859299;29;19955;-63
2023/04/30 10:59:13;;;;;;;;;;;;;;;29.77;22.21;98407.88;4837943;29;20012;-63
2023/04/30 11:01:54;;;;;;;;;;;;;;;29.61;20.60;98402.22;4851669;29;19971;-63
2023/04/30 11:04:19;;;;;;;;;;;;;;;30.56;22.94;98409.88;4842758;29;19924;-64
2023/04/30 11:07:17;;;;;;;;;;;;;;;29.86;21.43;98405.69;4861724;29;19917;-63
2023/04/30 11:09:43;;;;;;;;;;;;;;;30.19;21.45;98399.94;4787256;30;19925;-63
2023/04/30 11:12:27;;;;;;;;;;;;;;;30.55;21.47;98402.81;4765811;30;19922;-63
2023/04/30 11:14:52;;;;;;;;;;;;;;;31.53;20.60;98398.88;4762271;30;19970;-64
2023/04/30 11:17:21;;;;;;;;;;;;;;;30.90;21.32;98390.28;4787418;30;19921;-64
2023/04/30 11:19:47;;;;;;;;;;;;;;;30.83;21.19;98386.81;4772157;30;19918;-64
2023/04/30 11:22:12;;;;;;;;;;;;;;;30.93;20.27;98389.78;4787455;30;20417;-64
2023/04/30 11:24:50;;;;;;;;;;;;;;;31.32;22.70;98382.13;4781176;30;19961;-65
2023/04/30 11:27:22;;;;;;;;;;;;;;;31.57;21.16;98375.66;4784368;30;19921;-63
2023/04/30 11:29:47;;;;;;;;;;;;;;;30.57;19.64;98379.91;4786993;30;19925;-64
2023/04/30 11:32:12;;;;;;;;;;;;;;;30.66;19.78;98377.69;4779424;30;19925;-63
2023/04/30 11:34:37;;;;;;;;;;;;;;;31.01;19.88;98368.88;4779411;30;19921;-64
2023/04/30 11:37:03;;;;;;;;;;;;;;;30.85;21.40;98371.19;4781837;30;19930;-63
2023/04/30 11:39:28;;;;;;;;;;;;;;;29.70;20.79;98363.88;4776389;30;19929;-63
2023/04/30 11:41:53;;;;;;;;;;;;;;;28.06;20.38;98357.53;4781795;30;19926;-63
2023/04/30 11:44:22;;;;;;;;;;;;;;;28.11;21.55;98363.13;4782521;29;19926;-63
2023/04/30 11:46:48;;;;;;;;;;;;;;;27.76;22.13;98364.47;4830172;29;19916;-63
2023/04/30 11:49:13;;;;;;;;;;;;;;;27.98;21.68;98359.63;4861641;29;19984;-63
2023/04/30 11:51:38;;;;;;;;;;;;;;;29.45;21.81;98350.38;4862024;29;19952;-63
2023/04/30 11:54:03;;;;;;;;;;;;;;;29.92;21.16;98356.16;4841068;29;19921;-64
2023/04/30 11:56:28;;;;;;;;;;;;;;;29.68;20.59;98348.94;4835971;29;19920;-63
2023/04/30 11:58:54;;;;;;;;;;;;;;;30.27;19.90;98353.66;4861794;29;19916;-64
2023/04/30 12:01:20;;;;;;;;;;;;;;;31.49;19.14;98344.31;4861500;29;19917;-63
2023/04/30 12:03:46;;;;;;;;;;;;;;;30.59;20.13;98355.28;4861711;29;19916;-64
2023/04/30 12:06:11;;;;;;;;;;;;;;;31.09;19.58;98346.84;4841081;29;20383;-63
2023/04/30 12:08:37;;;;;;;;;;;;;;;32.10;19.09;98344.78;4836883;29;20031;-64
2023/04/30 12:11:02;;;;;;;;;;;;;;;31.91;19.00;98344.97;4861450;29;19970;-64
2023/04/30 12:13:29;;;;;;;;;;;;;;;31.91;17.25;98342.25;4861527;29;19916;-63
2023/04/30 12:15:58;;;;;;;;;;;;;;;31.72;18.78;98340.72;4844843;29;20426;-63
2023/04/30 12:18:23;;;;;;;;;;;;;;;32.26;17.70;98335.91;4842055;29;19923;-63
2023/04/30 12:20:49;;;;;;;;;;;;;;;32.23;18.75;98332.84;4850285;29;19916;-64
2023/04/30 12:23:14;;;;;;;;;;;;;;;29.78;18.47;98350.06;4857745;29;19922;-63
2023/04/30 12:25:40;;;;;;;;;;;;;;;29.68;20.07;98348.94;4844887;29;19916;-64
2023/04/30 12:28:05;;;;;;;;;;;;;;;29.46;19.90;98340.41;4837998;29;19920;-64
2023/04/30 12:30:30;;;;;;;;;;;;;;;29.13;19.90;98346.94;4853339;29;19951;-63
2023/04/30 12:32:56;;;;;;;;;;;;;;;28.67;21.52;98341.88;4844916;29;19916;-64
2023/04/30 12:35:21;;;;;;;;;;;;;;;29.80;19.66;98337.16;4857001;29;20007;-63
2023/04/30 12:37:50;;;;;;;;;;;;;;;30.93;19.20;98341.03;4853509;29;19967;-63
2023/04/30 12:40:16;;;;;;;;;;;;;;;31.33;18.54;98334.19;4860824;29;19973;-63
2023/04/30 12:42:41;;;;;;;;;;;;;;;30.24;19.14;98337.06;4844400;29;19916;-63
2023/04/30 12:45:07;;;;;;;;;;;;;;;31.03;19.31;98331.53;4842110;29;19920;-63
2023/04/30 12:47:32;;;;;;;;;;;;;;;30.14;19.38;98329.44;4851805;29;19969;-63
2023/04/30 12:49:57;;;;;;;;;;;;;;;29.02;20.29;98323.38;4844014;29;19927;-63
2023/04/30 12:52:23;;;;;;;;;;;;;;;27.97;21.08;98321.06;4860925;29;19916;-63
2023/04/30 12:54:49;;;;;;;;;;;;;;;27.30;21.35;98324.97;4844284;29;20434;-62
2023/04/30 12:57:14;;;;;;;;;;;;;;;26.98;21.73;98322.06;4855729;29;19924;-63
2023/04/30 12:59:54;;;;;;;;;;;;;;;26.40;22.67;98329.84;4852062;29;19931;-63
2023/04/30 13:02:23;;;;;;;;;;;;;;;28.06;21.31;98319.78;4860710;29;19916;-63
2023/04/30 13:04:49;;;;;;;;;;;;;;;29.10;20.52;98318.50;4844232;29;19924;-64
2023/04/30 13:07:14;;;;;;;;;;;;;;;30.15;18.89;98311.34;4860581;29;20068;-63
2023/04/30 13:09:39;;;;;;;;;;;;;;;31.53;18.42;98310.25;4852864;29;20143;-63
2023/04/30 13:12:05;;;;;;;;;;;;;;;32.40;18.53;98306.56;4853020;29;19964;-63
2023/04/30 13:14:30;;;;;;;;;;;;;;;31.03;18.96;98299.03;4860496;29;20290;-63
2023/04/30 13:16:56;;;;;;;;;;;;;;;30.79;17.76;98307.13;4860502;29;19965;-63
2023/04/30 13:19:29;;;;;;;;;;;;;;;30.31;19.18;98301.78;4860184;29;19943;-63
2023/04/30 13:21:54;;;;;;;;;;;;;;;29.41;19.86;98305.13;4851970;29;19924;-63
2023/04/30 13:24:19;;;;;;;;;;;;;;;28.60;19.31;98309.56;4853023;29;20255;-63
2023/04/30 13:26:45;;;;;;;;;;;;;;;27.79;22.11;98292.09;4843705;29;20011;-63
2023/04/30 13:29:10;;;;;;;;;;;;;;;27.05;21.65;98295.13;4859784;29;19923;-63
2023/04/30 13:31:35;;;;;;;;;;;;;;;28.57;20.90;98297.31;4860243;29;19916;-61
2023/04/30 13:34:01;;;;;;;;;;;;;;;29.70;19.53;98298.19;4852416;29;19920;-63
2023/04/30 13:36:26;;;;;;;;;;;;;;;30.98;18.44;98284.31;4852295;29;19924;-63
2023/04/30 13:38:51;;;;;;;;;;;;;;;30.20;19.38;98287.19;4860145;29;20212;-63
2023/04/30 13:41:17;;;;;;;;;;;;;;;29.09;19.93;98284.44;4855448;29;20043;-63
2023/04/30 13:43:43;;;;;;;;;;;;;;;29.94;19.18;98294.56;4851773;29;19916;-63
2023/04/30 13:46:08;;;;;;;;;;;;;;;31.99;17.73;98273.25;4860119;29;20297;-63
2023/04/30 13:48:34;;;;;;;;;;;;;;;32.01;17.74;98279.25;4859920;29;19920;-61
2023/04/30 13:50:59;;;;;;;;;;;;;;;30.26;18.14;98278.16;4857994;29;20360;-63
2023/04/30 13:53:24;;;;;;;;;;;;;;;30.08;18.88;98283.59;4849188;29;19923;-63
2023/04/30 13:55:50;;;;;;;;;;;;;;;30.78;18.41;98278.41;4859914;29;19989;-63
2023/04/30 13:58:15;;;;;;;;;;;;;;;29.07;19.79;98272.22;4859930;29;19917;-63
2023/04/30 14:00:40;;;;;;;;;;;;;;;28.97;20.36;98274.56;4859764;29;20378;-63
2023/04/30 14:03:06;;;;;;;;;;;;;;;30.07;19.50;98271.09;4857991;29;20355;-63
2023/04/30 14:05:31;;;;;;;;;;;;;;;28.47;21.32;98271.88;4847821;29;20343;-63
2023/04/30 14:07:56;;;;;;;;;;;;;;;27.16;22.59;98275.69;4859813;29;20343;-63
2023/04/30 14:10:21;;;;;;;;;;;;;;;26.41;23.18;98277.72;4859693;29;20359;-63
2023/04/30 14:12:47;;;;;;;;;;;;;;;27.99;20.77;98267.78;4859830;29;19927;-63
2023/04/30 14:15:13;;;;;;;;;;;;;;;30.28;19.11;98262.50;4841744;29;19966;-63
2023/04/30 14:17:38;;;;;;;;;;;;;;;31.25;17.85;98261.31;4850669;29;19951;-63
2023/04/30 14:20:04;;;;;;;;;;;;;;;31.88;17.50;98250.53;4859530;29;20401;-63
2023/04/30 14:22:29;;;;;;;;;;;;;;;32.92;17.05;98240.41;4859675;29;19956;-63
2023/04/30 14:24:55;;;;;;;;;;;;;;;33.85;15.59;98244.13;4859700;29;19923;-64
2023/04/30 14:27:20;;;;;;;;;;;;;;;34.87;15.30;98241.59;4855092;29;19921;-62
2023/04/30 14:29:45;;;;;;;;;;;;;;;32.80;15.95;98222.31;4851323;29;19965;-63
2023/04/30 14:32:11;;;;;;;;;;;;;;;31.26;17.53;98233.19;4859693;29;20372;-65
2023/04/30 14:34:37;;;;;;;;;;;;;;;29.99;18.80;98247.91;4859599;29;19916;-62
2023/04/30 14:37:02;;;;;;;;;;;;;;;28.88;19.27;98238.13;4845536;29;19928;-63
2023/04/30 14:39:27;;;;;;;;;;;;;;;27.75;20.07;98247.75;4848634;29;19969;-63
2023/04/30 14:41:52;;;;;;;;;;;;;;;31.43;17.48;98237.66;4862363;29;19923;-63
2023/04/30 14:44:18;;;;;;;;;;;;;;;32.51;16.20;98231.59;4863184;29;20354;-63
2023/04/30 14:46:43;;;;;;;;;;;;;;;33.63;15.61;98221.59;4858496;29;19921;-63
2023/04/30 14:49:09;;;;;;;;;;;;;;;34.26;15.21;98226.34;4857424;29;19920;-63
2023/04/30 14:51:34;;;;;;;;;;;;;;;34.87;14.34;98219.78;4846226;29;19922;-63
2023/04/30 14:54:00;;;;;;;;;;;;;;;35.82;13.67;98220.56;4862834;29;19920;-63
2023/04/30 14:56:25;;;;;;;;;;;;;;;35.57;13.84;98207.66;4862994;29;19920;-63
2023/04/30 14:58:50;;;;;;;;;;;;;;;35.48;13.73;98200.22;4855095;29;19920;-63
2023/04/30 15:01:15;;;;;;;;;;;;;;;36.25;13.19;98204.84;4851750;29;19917;-63
2023/04/30 15:03:41;;;;;;;;;;;;;;;35.78;14.00;98205.00;4861317;29;19916;-63
2023/04/30 15:06:06;;;;;;;;;;;;;;;35.71;13.92;98204.44;4863208;29;19916;-63
2023/04/30 15:08:31;;;;;;;;;;;;;;;35.31;13.42;98204.00;4862480;29;19972;-63
2023/04/30 15:10:57;;;;;;;;;;;;;;;35.36;13.76;98203.19;4856222;29;19921;-63
2023/04/30 15:13:22;;;;;;;;;;;;;;;35.48;14.05;98202.94;4857177;29;19923;-64
2023/04/30 15:15:48;;;;;;;;;;;;;;;35.41;13.39;98208.66;4854134;29;19955;-63
2023/04/30 15:18:14;;;;;;;;;;;;;;;35.46;14.01;98205.97;4862443;29;19974;-63
2023/04/30 15:20:39;;;;;;;;;;;;;;;35.58;13.43;98195.69;4862347;29;20320;-64
2023/04/30 15:23:04;;;;;;;;;;;;;;;35.50;13.11;98196.16;4855229;29;19964;-63
2023/04/30 15:25:30;;;;;;;;;;;;;;;35.48;13.46;98190.16;4854678;29;19974;-64
2023/04/30 15:27:57;;;;;;;;;;;;;;;35.30;13.52;98196.06;4862385;29;20037;-64
2023/04/30 15:30:22;;;;;;;;;;;;;;;34.24;14.51;98192.28;4862179;29;19920;-63
2023/04/30 15:32:47;;;;;;;;;;;;;;;34.32;14.43;98193.75;4862260;29;20012;-63
2023/04/30 15:35:12;;;;;;;;;;;;;;;34.05;14.74;98194.59;4855215;29;19920;-64
2023/04/30 15:37:38;;;;;;;;;;;;;;;34.03;14.69;98188.56;4854353;29;19928;-63
2023/04/30 15:40:06;;;;;;;;;;;;;;;33.74;14.71;98191.50;4861947;29;19917;-63
2023/04/30 15:42:31;;;;;;;;;;;;;;;33.06;15.73;98190.91;4862328;29;20006;-63
2023/04/30 15:44:56;;;;;;;;;;;;;;;33.67;15.23;98190.91;4862115;29;20360;-63
2023/04/30 15:47:22;;;;;;;;;;;;;;;31.65;16.27;98174.66;4855560;29;19968;-63
2023/04/30 15:49:48;;;;;;;;;;;;;;;30.76;18.00;98177.66;4851831;29;19928;-62
2023/04/30 15:52:13;;;;;;;;;;;;;;;29.77;18.18;98180.00;4861645;29;19916;-63
2023/04/30 15:54:39;;;;;;;;;;;;;;;28.97;19.30;98180.91;4861990;29;20310;-63
2023/04/30 15:57:04;;;;;;;;;;;;;;;29.87;18.85;98185.69;4862248;29;20286;-63
2023/04/30 15:59:29;;;;;;;;;;;;;;;30.11;17.70;98180.34;4855093;29;20314;-64
2023/04/30 16:01:54;;;;;;;;;;;;;;;29.00;19.23;98185.88;4854153;29;20286;-63
2023/04/30 16:04:20;;;;;;;;;;;;;;;28.28;19.79;98182.75;4861712;29;20311;-63
2023/04/30 16:06:45;;;;;;;;;;;;;;;27.19;21.31;98189.94;4861551;29;19964;-62
2023/04/30 16:09:11;;;;;;;;;;;;;;;26.68;21.91;98192.50;4844823;29;19961;-61
2023/04/30 16:11:36;;;;;;;;;;;;;;;26.14;22.82;98186.25;4856960;29;19927;-63
2023/04/30 16:14:01;;;;;;;;;;;;;;;25.72;22.58;98193.59;4849770;29;19921;-63
2023/04/30 16:16:27;;;;;;;;;;;;;;;25.72;22.82;98187.41;4857818;29;19924;-62
2023/04/30 16:18:53;;;;;;;;;;;;;;;26.72;21.91;98181.13;4861291;29;19923;-63
2023/04/30 16:21:18;;;;;;;;;;;;;;;27.29;20.63;98180.59;4861158;29;19970;-63
2023/04/30 16:23:44;;;;;;;;;;;;;;;27.44;21.05;98181.16;4856119;29;19959;-64
2023/04/30 16:26:09;;;;;;;;;;;;;;;27.51;21.19;98179.25;4838713;29;19963;-63
2023/04/30 16:28:34;;;;;;;;;;;;;;;27.99;20.23;98178.81;4861076;29;19943;-62
2023/04/30 16:31:00;;;;;;;;;;;;;;;28.03;20.67;98168.41;4860902;29;20390;-63
2023/04/30 16:33:25;;;;;;;;;;;;;;;28.05;20.88;98172.56;4852329;29;19917;-64
2023/04/30 16:35:50;;;;;;;;;;;;;;;28.25;20.76;98171.56;4852390;29;19957;-63
2023/04/30 16:38:15;;;;;;;;;;;;;;;28.51;20.89;98171.38;4860885;29;19916;-63
2023/04/30 16:40:41;;;;;;;;;;;;;;;28.20;20.13;98168.72;4860813;29;20492;-63
2023/04/30 16:43:06;;;;;;;;;;;;;;;27.96;20.15;98179.25;4844314;29;20418;-63
2023/04/30 16:45:32;;;;;;;;;;;;;;;27.98;21.23;98174.47;4850032;29;19920;-64
2023/04/30 16:47:57;;;;;;;;;;;;;;;27.60;20.55;98177.97;4824130;29;20426;-62
2023/04/30 16:50:24;;;;;;;;;;;;;;;27.26;21.73;98167.56;4823951;29;19921;-63
2023/04/30 16:52:49;;;;;;;;;;;;;;;26.83;21.88;98168.06;4841783;29;20015;-63
2023/04/30 16:55:14;;;;;;;;;;;;;;;26.15;22.47;98166.44;4844253;29;20003;-63
2023/04/30 16:57:40;;;;;;;;;;;;;;;26.01;22.79;98165.56;4838846;29;20096;-62
2023/04/30 17:00:07;;;;;;;;;;;;;;;25.33;23.62;98173.63;4841929;29;20298;-62
2023/04/30 17:02:32;;;;;;;;;;;;;;;24.60;24.01;98164.31;4842036;29;20164;-62
2023/04/30 17:04:57;;;;;;;;;;;;;;;24.16;25.48;98173.44;4843617;29;20382;-62
2023/04/30 17:07:23;;;;;;;;;;;;;;;23.77;25.87;98173.84;4825154;29;20387;-63
2023/04/30 17:09:49;;;;;;;;;;;;;;;23.51;25.95;98169.03;4841542;29;19923;-63
2023/04/30 17:12:14;;;;;;;;;;;;;;;23.21;27.12;98169.06;4842116;29;19923;-62
2023/04/30 17:14:40;;;;;;;;;;;;;;;23.02;27.08;98169.63;4841786;29;19924;-62
2023/04/30 17:17:06;;;;;;;;;;;;;;;22.86;27.29;98160.75;4852514;29;19984;-62
2023/04/30 17:19:31;;;;;;;;;;;;;;;22.69;27.20;98162.78;4843504;29;19916;-62
2023/04/30 17:21:56;;;;;;;;;;;;;;;22.61;27.52;98167.34;4849896;29;20023;-61
2023/04/30 17:24:23;;;;;;;;;;;;;;;22.46;26.89;98162.81;4824761;29;19956;-62
2023/04/30 17:26:48;;;;;;;;;;;;;;;22.30;27.70;98163.00;4847598;29;19924;-62
2023/04/30 17:29:15;;;;;;;;;;;;;;;21.98;27.70;98158.72;4846193;29;19921;-62
2023/04/30 17:31:40;;;;;;;;;;;;;;;21.81;27.80;98160.66;4849187;29;19948;-61
2023/04/30 17:34:05;;;;;;;;;;;;;;;21.52;28.88;98169.38;4840738;29;19956;-61
2023/04/30 17:36:31;;;;;;;;;;;;;;;21.26;28.85;98170.44;4840924;29;19960;-62
2023/04/30 17:38:56;;;;;;;;;;;;;;;21.07;29.77;98169.03;4848134;29;19927;-61
2023/04/30 17:41:21;;;;;;;;;;;;;;;20.93;29.61;98166.28;4848215;29;19977;-62
2023/04/30 17:43:48;;;;;;;;;;;;;;;20.68;30.72;98169.00;4858210;29;19916;-63
2023/04/30 17:46:13;;;;;;;;;;;;;;;20.41;31.47;98169.38;4827173;29;19920;-60
2023/04/30 17:48:38;;;;;;;;;;;;;;;20.29;32.04;98172.34;4841125;29;20331;-62
2023/04/30 17:51:04;;;;;;;;;;;;;;;20.13;32.14;98175.88;4847783;29;19921;-62
2023/04/30 17:53:29;;;;;;;;;;;;;;;19.94;32.15;98170.84;4848302;29;19971;-62
2023/04/30 17:55:54;;;;;;;;;;;;;;;19.80;32.14;98161.69;4853870;29;20233;-62
2023/04/30 17:58:19;;;;;;;;;;;;;;;19.61;33.15;98168.13;4848414;29;19926;-63
2023/04/30 18:00:45;;;;;;;;;;;;;;;19.63;32.99;98171.47;4857409;29;19917;-62
2023/04/30 18:03:10;;;;;;;;;;;;;;;19.39;33.34;98168.72;4859770;29;19945;-62
2023/04/30 18:05:35;;;;;;;;;;;;;;;19.23;33.55;98166.00;4846013;29;19920;-62
2023/04/30 18:08:03;;;;;;;;;;;;;;;19.17;33.31;98171.00;4837901;29;20438;-61
2023/04/30 18:10:28;;;;;;;;;;;;;;;19.02;33.84;98167.25;4835547;29;19924;-63
2023/04/30 18:12:53;;;;;;;;;;;;;;;18.85;34.78;98169.00;4842267;29;20387;-62
2023/04/30 18:15:19;;;;;;;;;;;;;;;18.69;35.30;98164.41;4848369;29;20032;-62
2023/04/30 18:17:44;;;;;;;;;;;;;;;18.62;34.79;98165.22;4840890;29;20383;-62
2023/04/30 18:20:11;;;;;;;;;;;;;;;18.54;34.70;98163.31;4844481;29;20368;-63
2023/04/30 18:22:41;;;;;;;;;;;;;;;18.36;35.11;98170.50;4841482;29;19920;-62
2023/04/30 18:25:07;;;;;;;;;;;;;;;18.17;35.60;98171.50;4827999;29;20015;-62
2023/04/30 18:27:32;;;;;;;;;;;;;;;18.07;35.83;98165.47;4843744;29;19920;-62
2023/04/30 18:29:57;;;;;;;;;;;;;;;17.97;36.25;98170.88;4843339;29;19935;-62